createdAt,value
2022-09-26T00:06:49.572Z,30.40
2022-09-26T00:19:58.044Z,30.08
2022-09-26T01:12:33.594Z,30.27
2022-09-26T01:15:00.739Z,30.02
2022-09-26T01:17:27.879Z,29.55
2022-09-26T01:20:04.334Z,30.73
2022-09-26T01:22:34.321Z,27.70
2022-09-26T01:25:01.469Z,27.25
2022-09-26T01:27:35.357Z,27.80
2022-09-26T01:30:05.513Z,39.10
2022-09-26T01:32:48.872Z,63.50
2022-09-26T01:35:28.332Z,47.22
2022-09-26T01:38:01.748Z,46.35
2022-09-26T01:40:45.281Z,43.30
2022-09-26T01:43:12.534Z,50.10
2022-09-26T01:45:57.096Z,43.95
2022-09-26T01:48:34.580Z,38.97
2022-09-26T01:51:03.397Z,41.80
2022-09-26T01:53:33.759Z,37.85
2022-09-26T01:56:03.272Z,34.80
2022-09-26T01:58:30.582Z,28.80
2022-09-26T02:00:58.640Z,25.63
2022-09-26T02:03:27.901Z,24.45
2022-09-26T02:05:56.867Z,25.67
2022-09-26T02:08:25.701Z,25.38
2022-09-26T02:10:59.544Z,26.75
2022-09-26T02:13:30.048Z,32.65
2022-09-26T02:15:58.696Z,30.90
2022-09-26T02:18:32.799Z,50.05
2022-09-26T02:21:03.591Z,55.58
2022-09-26T02:23:30.786Z,60.42
2022-09-26T02:25:58.439Z,62.58
2022-09-26T02:28:25.578Z,62.47
2022-09-26T02:30:53.314Z,54.63
2022-09-26T02:33:20.678Z,35.65
2022-09-26T02:35:54.281Z,33.63
2022-09-26T02:38:22.352Z,40.17
2022-09-26T02:41:00.489Z,45.42
2022-09-26T02:43:32.032Z,36.80
2022-09-26T02:46:06.125Z,36.80
2022-09-26T02:48:36.139Z,36.95
2022-09-26T02:51:06.072Z,34.95
2022-09-26T02:53:52.115Z,36.10
2022-09-26T02:56:26.094Z,39.03
2022-09-26T02:59:05.622Z,36.92
2022-09-26T03:01:49.163Z,39.08
2022-09-26T03:04:21.795Z,39.45
2022-09-26T03:06:49.856Z,42.30
2022-09-26T03:09:17.131Z,43.72
2022-09-26T03:11:44.436Z,43.78
2022-09-26T03:14:11.737Z,43.00
2022-09-26T03:16:39.425Z,44.03
2022-09-26T03:19:12.869Z,53.28
2022-09-26T03:21:39.993Z,51.80
2022-09-26T03:24:07.174Z,53.08
2022-09-26T03:26:34.387Z,44.88
2022-09-26T03:29:01.548Z,46.17
2022-09-26T03:31:29.020Z,47.78
2022-09-26T03:33:56.370Z,46.53
2022-09-26T03:36:24.817Z,44.58
2022-09-26T03:38:52.032Z,43.03
2022-09-26T03:41:19.729Z,45.13
2022-09-26T03:43:46.857Z,47.58
2022-09-26T03:46:15.865Z,44.47
2022-09-26T03:48:43.325Z,42.97
2022-09-26T03:51:13.561Z,40.20
2022-09-26T03:53:41.968Z,40.83
2022-09-26T03:56:12.940Z,39.10
2022-09-26T03:58:40.124Z,39.95
2022-09-26T04:01:08.213Z,34.95
2022-09-26T04:03:36.301Z,35.55
2022-09-26T04:06:03.586Z,37.50
2022-09-26T04:08:31.334Z,40.58
2022-09-26T04:11:02.660Z,43.95
2022-09-26T04:16:17.340Z,50.70
2022-09-26T04:18:44.508Z,43.95
2022-09-26T04:21:14.113Z,41.80
2022-09-26T04:23:41.358Z,40.42
2022-09-26T04:26:12.315Z,40.63
2022-09-26T04:28:39.913Z,36.20
2022-09-26T04:31:07.529Z,34.58
2022-09-26T04:33:34.918Z,33.65
2022-09-26T04:36:02.530Z,34.70
2022-09-26T04:38:32.639Z,37.17
2022-09-26T04:41:09.602Z,38.95
2022-09-26T04:43:36.856Z,39.95
2022-09-26T04:46:07.208Z,41.05
2022-09-26T04:48:34.900Z,41.90
2022-09-26T04:51:05.064Z,42.42
2022-09-26T04:53:32.228Z,39.00
2022-09-26T04:55:59.400Z,37.50
2022-09-26T04:58:27.027Z,38.38
2022-09-26T05:00:54.271Z,38.70
2022-09-26T05:03:21.586Z,38.72
2022-09-26T05:05:49.554Z,38.08
2022-09-26T05:08:16.810Z,38.50
2022-09-26T05:10:44.181Z,37.20
2022-09-26T05:13:11.483Z,35.92
2022-09-26T05:15:39.968Z,36.42
2022-09-26T05:18:11.550Z,36.03
2022-09-26T05:20:39.104Z,35.60
2022-09-26T05:23:09.726Z,33.03
2022-09-26T05:25:59.540Z,34.95
2022-09-26T05:28:26.782Z,36.42
2022-09-26T05:30:54.477Z,40.17
2022-09-26T05:33:21.843Z,34.95
2022-09-26T05:35:54.886Z,38.88
2022-09-26T05:38:22.096Z,36.05
2022-09-26T05:40:58.384Z,37.33
2022-09-26T05:43:27.422Z,42.97
2022-09-26T05:46:01.217Z,50.63
2022-09-26T05:48:29.887Z,51.58
2022-09-26T05:50:57.133Z,54.92
2022-09-26T05:53:25.833Z,58.97
2022-09-26T05:55:53.064Z,52.53
2022-09-26T05:58:20.235Z,47.13
2022-09-26T06:00:51.633Z,41.95
2022-09-26T06:03:19.634Z,36.25
2022-09-26T06:05:47.028Z,37.75
2022-09-26T06:08:14.330Z,40.50
2022-09-26T06:10:41.518Z,41.45
2022-09-26T06:13:08.740Z,41.33
2022-09-26T06:15:35.873Z,41.15
2022-09-26T06:18:06.564Z,38.15
2022-09-26T06:20:34.003Z,40.40
2022-09-26T06:23:01.783Z,43.25
2022-09-26T06:25:29.435Z,43.42
2022-09-26T06:27:59.954Z,43.17
2022-09-26T06:30:27.560Z,37.88
2022-09-26T06:32:54.799Z,39.80
2022-09-26T06:35:21.986Z,40.50
2022-09-26T06:37:49.171Z,40.55
2022-09-26T06:40:16.487Z,40.58
2022-09-26T06:42:46.718Z,43.92
2022-09-26T06:45:14.823Z,42.00
2022-09-26T06:47:42.045Z,42.15
2022-09-26T06:50:09.289Z,41.40
2022-09-26T06:52:36.505Z,42.67
2022-09-26T06:55:03.847Z,44.13
2022-09-26T06:57:41.112Z,38.15
2022-09-26T07:00:09.002Z,40.75
2022-09-26T07:02:36.351Z,40.78
2022-09-26T07:05:03.999Z,40.05
2022-09-26T07:07:31.214Z,43.35
2022-09-26T07:09:58.409Z,44.67
2022-09-26T07:12:25.772Z,44.20
2022-09-26T07:14:53.902Z,46.15
2022-09-26T07:17:21.195Z,47.03
2022-09-26T07:19:51.036Z,49.90
2022-09-26T07:22:18.754Z,48.35
2022-09-26T07:24:50.209Z,48.40
2022-09-26T07:27:18.057Z,44.20
2022-09-26T07:29:48.967Z,48.50
2022-09-26T07:32:16.141Z,46.22
2022-09-26T07:34:43.993Z,42.97
2022-09-26T07:37:11.186Z,44.33
2022-09-26T07:39:38.330Z,43.85
2022-09-26T07:42:05.487Z,40.20
2022-09-26T07:47:38.211Z,45.17
2022-09-26T07:50:13.354Z,60.00
2022-09-26T07:52:42.152Z,59.63
2022-09-26T07:55:09.852Z,57.13
2022-09-26T07:57:37.028Z,53.17
2022-09-26T08:00:09.611Z,43.67
2022-09-26T08:02:37.052Z,41.72
2022-09-26T08:05:04.949Z,42.67
2022-09-26T08:07:33.008Z,63.33
2022-09-26T08:10:03.091Z,54.83
2022-09-26T08:12:34.601Z,51.58
2022-09-26T08:15:01.772Z,41.13
2022-09-26T08:17:34.578Z,42.47
2022-09-26T08:20:02.018Z,42.40
2022-09-26T08:22:29.197Z,44.00
2022-09-26T08:24:56.947Z,61.00
2022-09-26T08:27:24.118Z,82.25
2022-09-26T08:29:51.606Z,56.63
2022-09-26T08:32:19.367Z,53.50
2022-09-26T08:34:47.129Z,66.93
2022-09-26T08:37:14.727Z,55.58
2022-09-26T08:39:41.890Z,57.45
2022-09-26T08:42:15.908Z,47.50
2022-09-26T08:45:26.143Z,44.83
2022-09-26T08:47:54.627Z,39.38
2022-09-26T08:50:21.789Z,40.78
2022-09-26T08:52:51.044Z,41.33
2022-09-26T08:55:19.101Z,44.67
2022-09-26T08:57:46.250Z,48.03
2022-09-26T09:00:13.809Z,48.13
2022-09-26T09:02:43.570Z,50.65
2022-09-26T09:05:20.711Z,50.30
2022-09-26T09:07:49.318Z,51.15
2022-09-26T09:10:17.935Z,50.28
2022-09-26T09:13:06.837Z,52.33
2022-09-26T09:15:52.630Z,47.70
2022-09-26T09:18:38.551Z,48.97
2022-09-26T09:21:08.686Z,50.95
2022-09-26T09:23:44.841Z,45.47
2022-09-26T09:29:00.823Z,41.20
2022-09-26T09:31:28.121Z,40.47
2022-09-26T09:33:58.804Z,37.40
2022-09-26T09:36:42.568Z,36.42
2022-09-26T09:39:09.778Z,43.10
2022-09-26T09:41:38.842Z,51.78
2022-09-26T09:44:18.491Z,54.80
2022-09-26T09:46:45.655Z,53.78
2022-09-26T09:49:15.564Z,55.17
2022-09-26T09:51:57.714Z,46.00
2022-09-26T09:54:28.346Z,38.38
2022-09-26T09:57:14.423Z,36.97
2022-09-26T10:00:02.347Z,35.38
2022-09-26T10:02:35.575Z,30.65
2022-09-26T10:05:18.742Z,29.50
2022-09-26T10:07:47.617Z,26.20
2022-09-26T10:10:19.962Z,23.52
2022-09-26T10:12:47.560Z,19.67
2022-09-26T10:15:19.785Z,18.92
2022-09-26T10:18:26.165Z,20.85
2022-09-26T10:20:54.145Z,24.20
2022-09-26T10:23:24.310Z,18.13
2022-09-26T10:25:51.851Z,20.85
2022-09-26T10:28:26.383Z,23.30
2022-09-26T10:30:54.681Z,23.25
2022-09-26T10:33:25.655Z,15.52
2022-09-26T10:35:52.882Z,8.05
2022-09-26T10:38:20.004Z,11.45
2022-09-26T10:40:53.288Z,11.68
2022-09-26T10:43:33.284Z,14.10
2022-09-26T10:46:05.274Z,13.20
2022-09-26T10:48:42.946Z,13.27
2022-09-26T10:51:10.098Z,13.57
2022-09-26T10:53:37.952Z,11.40
2022-09-26T10:56:09.524Z,11.20
2022-09-26T10:58:40.167Z,13.45
2022-09-26T11:01:07.347Z,11.40
2022-09-26T11:03:44.281Z,12.07
2022-09-26T11:06:25.254Z,13.88
2022-09-26T11:08:53.968Z,12.13
2022-09-26T11:11:22.460Z,12.23
2022-09-26T11:14:05.212Z,13.40
2022-09-26T11:16:44.375Z,16.75
2022-09-26T11:19:26.946Z,14.50
2022-09-26T11:22:17.111Z,11.10
2022-09-26T11:25:03.646Z,9.50
2022-09-26T11:27:43.935Z,9.07
2022-09-26T11:30:21.018Z,9.07
2022-09-26T11:32:48.742Z,8.65
2022-09-26T11:35:17.565Z,9.25
2022-09-26T11:37:45.290Z,8.80
2022-09-26T11:40:16.979Z,7.82
2022-09-26T11:42:44.126Z,8.00
2022-09-26T11:45:16.144Z,8.57
2022-09-26T11:47:43.308Z,9.15
2022-09-26T11:50:23.692Z,3.17
2022-09-26T11:52:50.842Z,2.50
2022-09-26T11:55:31.109Z,1.38
2022-09-26T11:58:19.698Z,1.52
2022-09-26T12:00:53.329Z,1.48
2022-09-26T12:03:40.630Z,1.40
2022-09-26T12:06:35.136Z,1.50
2022-09-26T12:09:25.375Z,1.10
2022-09-26T12:12:01.745Z,1.50
2022-09-26T12:14:54.919Z,1.20
2022-09-26T12:17:25.543Z,1.40
2022-09-26T12:19:54.122Z,1.40
2022-09-26T12:22:30.401Z,1.70
2022-09-26T12:24:57.592Z,1.52
2022-09-26T12:27:43.825Z,1.40
2022-09-26T12:30:11.213Z,1.40
2022-09-26T12:32:42.304Z,1.23
2022-09-26T12:35:29.177Z,1.90
2022-09-26T12:38:15.759Z,1.40
2022-09-26T12:40:51.098Z,1.77
2022-09-26T12:43:27.745Z,1.50
2022-09-26T12:46:04.549Z,2.85
2022-09-26T12:48:37.870Z,1.25
2022-09-26T12:51:22.375Z,0.90
2022-09-26T12:53:55.739Z,0.80
2022-09-26T12:56:30.643Z,1.15
2022-09-26T12:59:10.394Z,1.30
2022-09-26T13:01:57.263Z,1.83
2022-09-26T13:04:30.651Z,1.58
2022-09-26T13:07:19.449Z,1.42
2022-09-26T13:10:19.368Z,1.33
2022-09-26T13:13:05.343Z,1.60
2022-09-26T13:15:35.407Z,3.08
2022-09-26T13:18:08.879Z,4.90
2022-09-26T13:20:38.187Z,4.68
2022-09-26T13:23:13.026Z,6.15
2022-09-26T13:25:50.365Z,5.00
2022-09-26T13:28:17.670Z,3.95
2022-09-26T13:30:50.101Z,3.67
2022-09-26T13:33:24.447Z,5.65
2022-09-26T13:35:52.654Z,5.38
2022-09-26T13:38:58.549Z,4.40
2022-09-26T13:41:32.555Z,3.00
2022-09-26T13:44:09.985Z,2.08
2022-09-26T13:46:59.256Z,3.75
2022-09-26T13:49:35.782Z,12.57
2022-09-26T13:52:02.933Z,12.05
2022-09-26T13:54:41.156Z,12.90
2022-09-26T13:57:38.880Z,13.98
2022-09-26T14:00:29.838Z,8.50
2022-09-26T14:03:18.321Z,5.07
2022-09-26T14:05:46.634Z,3.92
2022-09-26T14:08:44.975Z,4.40
2022-09-26T14:11:35.243Z,3.20
2022-09-26T14:14:11.494Z,5.50
2022-09-26T14:16:38.689Z,4.22
2022-09-26T14:19:09.277Z,3.70
2022-09-26T14:21:37.124Z,2.55
2022-09-26T14:24:24.192Z,2.00
2022-09-26T14:27:04.178Z,2.30
2022-09-26T14:29:31.421Z,1.90
2022-09-26T14:32:01.311Z,2.70
2022-09-26T14:34:30.510Z,3.10
2022-09-26T14:36:58.848Z,2.50
2022-09-26T14:39:40.004Z,3.42
2022-09-26T14:42:07.998Z,1.73
2022-09-26T14:44:37.314Z,1.60
2022-09-26T14:47:05.629Z,1.83
2022-09-26T14:49:32.852Z,1.70
2022-09-26T14:52:00.888Z,1.70
2022-09-26T14:54:36.035Z,1.75
2022-09-26T14:57:03.847Z,1.60
2022-09-26T14:59:34.071Z,1.58
2022-09-26T15:02:26.082Z,2.05
2022-09-26T15:05:04.266Z,2.47
2022-09-26T15:08:01.281Z,2.50
2022-09-26T15:10:38.395Z,2.88
2022-09-26T15:13:10.758Z,3.55
2022-09-26T15:15:41.141Z,8.15
2022-09-26T15:18:09.760Z,4.32
2022-09-26T15:20:41.791Z,4.10
2022-09-26T15:23:18.886Z,4.05
2022-09-26T15:25:46.214Z,4.93
2022-09-26T15:28:13.416Z,4.38
2022-09-26T15:30:41.941Z,4.68
2022-09-26T15:33:16.178Z,7.13
2022-09-26T15:35:52.434Z,4.32
2022-09-26T15:38:19.628Z,3.90
2022-09-26T15:40:59.297Z,4.22
2022-09-26T15:43:26.506Z,4.28
2022-09-26T15:45:58.528Z,4.47
2022-09-26T15:48:25.837Z,4.07
2022-09-26T15:50:53.406Z,3.90
2022-09-26T15:53:20.699Z,4.45
2022-09-26T15:55:51.615Z,3.88
2022-09-26T15:58:19.513Z,4.40
2022-09-26T16:00:49.220Z,3.83
2022-09-26T16:03:28.616Z,4.95
2022-09-26T16:05:55.771Z,5.47
2022-09-26T16:08:23.564Z,4.57
2022-09-26T16:11:00.351Z,5.13
2022-09-26T16:13:28.330Z,8.65
2022-09-26T16:16:03.042Z,5.43
2022-09-26T16:18:31.186Z,4.70
2022-09-26T16:21:17.246Z,7.85
2022-09-26T16:23:57.962Z,5.22
2022-09-26T16:26:30.119Z,9.93
2022-09-26T16:28:57.941Z,12.25
2022-09-26T16:31:26.742Z,19.65
2022-09-26T16:33:54.231Z,37.72
2022-09-26T16:36:28.483Z,35.83
2022-09-26T16:38:59.736Z,38.83
2022-09-26T16:41:59.501Z,23.58
2022-09-26T16:44:33.484Z,16.40
2022-09-26T16:47:03.382Z,12.15
2022-09-26T16:49:30.601Z,19.17
2022-09-26T16:52:11.061Z,15.88
2022-09-26T16:54:38.272Z,17.52
2022-09-26T16:57:05.428Z,20.08
2022-09-26T16:59:32.610Z,27.30
2022-09-26T17:02:00.358Z,28.75
2022-09-26T17:04:31.334Z,34.38
2022-09-26T17:07:05.173Z,39.75
2022-09-26T17:09:34.702Z,46.42
2022-09-26T17:12:05.743Z,45.05
2022-09-26T17:14:40.244Z,44.05
2022-09-26T17:17:08.481Z,32.60
2022-09-26T17:19:37.446Z,38.42
2022-09-26T17:22:05.473Z,39.33
2022-09-26T17:24:33.084Z,38.13
2022-09-26T17:27:01.149Z,36.10
2022-09-26T17:29:30.078Z,317.15
2022-09-26T17:31:57.506Z,228.00
2022-09-26T17:34:25.491Z,91.97
2022-09-26T17:36:53.138Z,83.20
2022-09-26T17:39:25.455Z,71.43
2022-09-26T17:41:53.534Z,41.33
2022-09-26T17:44:21.842Z,29.60
2022-09-26T17:46:50.678Z,26.88
2022-09-26T17:49:38.372Z,35.63
2022-09-26T17:52:05.721Z,29.63
2022-09-26T17:54:36.455Z,26.05
2022-09-26T17:57:03.710Z,24.88
2022-09-26T17:59:30.890Z,30.95
2022-09-26T18:02:01.634Z,29.88
2022-09-26T18:04:29.234Z,38.75
2022-09-26T18:06:56.887Z,35.83
2022-09-26T18:09:24.044Z,35.60
2022-09-26T18:11:54.811Z,36.83
2022-09-26T18:14:23.501Z,35.92
2022-09-26T18:16:50.652Z,54.67
2022-09-26T18:19:19.146Z,57.40
2022-09-26T18:21:46.528Z,46.50
2022-09-26T18:24:19.219Z,51.95
2022-09-26T18:26:47.559Z,51.10
2022-09-26T18:29:16.094Z,57.55
2022-09-26T18:31:45.275Z,54.72
2022-09-26T18:34:13.262Z,46.30
2022-09-26T18:36:40.414Z,45.92
2022-09-26T18:39:07.686Z,50.70
2022-09-26T18:41:35.350Z,48.88
2022-09-26T18:44:03.084Z,44.58
2022-09-26T18:46:30.383Z,55.13
2022-09-26T18:48:58.413Z,54.30
2022-09-26T18:51:26.305Z,54.90
2022-09-26T18:53:53.399Z,59.35
2022-09-26T18:56:39.234Z,60.63
2022-09-26T18:59:10.323Z,78.47
2022-09-26T19:01:38.486Z,50.35
2022-09-26T19:04:06.182Z,55.42
2022-09-26T19:06:37.194Z,52.05
2022-09-26T19:09:05.257Z,52.85
2022-09-26T19:11:34.609Z,49.28
2022-09-26T19:14:06.732Z,60.28
2022-09-26T19:16:33.884Z,54.35
2022-09-26T19:19:01.699Z,82.90
2022-09-26T19:21:33.350Z,80.97
2022-09-26T19:24:01.075Z,55.13
2022-09-26T19:26:32.843Z,59.25
2022-09-26T19:29:00.014Z,82.88
2022-09-26T19:31:27.671Z,96.95
2022-09-26T19:33:54.908Z,85.55
2022-09-26T19:36:22.154Z,99.03
2022-09-26T19:38:49.399Z,72.30
2022-09-26T19:41:16.715Z,49.85
2022-09-26T19:43:44.010Z,50.17
2022-09-26T19:46:13.079Z,51.75
2022-09-26T19:48:41.447Z,47.75
2022-09-26T19:51:11.149Z,59.72
2022-09-26T19:53:38.521Z,61.25
2022-09-26T19:56:05.871Z,57.70
2022-09-26T19:58:33.100Z,57.78
2022-09-26T20:01:05.929Z,62.10
2022-09-26T20:03:35.746Z,55.97
2022-09-26T20:06:03.098Z,51.50
2022-09-26T20:08:30.318Z,49.22
2022-09-26T20:10:57.987Z,48.70
2022-09-26T20:13:25.145Z,55.90
2022-09-26T20:15:52.374Z,52.00
2022-09-26T20:18:20.771Z,52.88
2022-09-26T20:20:52.818Z,57.20
2022-09-26T20:23:20.591Z,62.08
2022-09-26T20:25:47.760Z,48.10
2022-09-26T20:28:16.011Z,39.10
2022-09-26T20:30:52.282Z,40.50
2022-09-26T20:33:22.076Z,43.67
2022-09-26T20:35:58.954Z,42.03
2022-09-26T20:38:37.780Z,42.13
2022-09-26T20:41:13.188Z,48.28
2022-09-26T20:43:40.846Z,45.85
2022-09-26T20:46:09.184Z,53.22
2022-09-26T20:48:36.499Z,49.22
2022-09-26T20:51:03.942Z,51.97
2022-09-26T20:53:31.141Z,44.83
2022-09-26T20:55:58.326Z,44.13
2022-09-26T20:58:25.502Z,48.42
2022-09-26T21:00:53.318Z,52.65
2022-09-26T21:03:25.615Z,61.53
2022-09-26T21:05:52.884Z,73.55
2022-09-26T21:08:20.022Z,61.85
2022-09-26T21:10:47.251Z,63.08
2022-09-26T21:13:14.464Z,56.53
2022-09-26T21:15:43.250Z,53.55
2022-09-26T21:18:29.327Z,51.15
2022-09-26T21:20:57.802Z,52.97
2022-09-26T21:23:25.034Z,50.97
2022-09-26T21:25:52.267Z,48.97
2022-09-26T21:28:26.906Z,46.42
2022-09-26T21:31:00.785Z,36.00
2022-09-26T21:33:28.191Z,36.00
2022-09-26T21:35:55.329Z,34.40
2022-09-26T21:38:22.641Z,32.40
2022-09-26T21:40:50.587Z,28.42
2022-09-26T21:43:18.262Z,28.60
2022-09-26T21:45:45.875Z,23.23
2022-09-26T21:48:13.569Z,24.38
2022-09-26T21:50:42.070Z,21.63
2022-09-26T21:53:11.142Z,23.65
2022-09-26T21:55:38.789Z,22.75
2022-09-26T21:58:06.977Z,20.70
2022-09-26T22:00:34.164Z,23.10
2022-09-26T22:03:01.453Z,23.05
2022-09-26T22:05:29.287Z,21.58
2022-09-26T22:07:57.276Z,23.25
2022-09-26T22:10:24.488Z,28.48
2022-09-26T22:12:52.327Z,32.95
2022-09-26T22:15:19.680Z,30.10
2022-09-26T22:17:47.024Z,26.02
2022-09-26T22:20:14.197Z,21.70
2022-09-26T22:22:41.386Z,31.58
2022-09-26T22:25:08.654Z,23.92
2022-09-26T22:27:36.278Z,27.52
2022-09-26T22:30:04.035Z,25.88
2022-09-26T22:32:31.178Z,27.50
2022-09-26T22:34:58.323Z,24.20
2022-09-26T22:37:25.512Z,25.48
2022-09-26T22:39:53.289Z,26.63
2022-09-26T22:42:20.460Z,22.15
2022-09-26T22:44:47.709Z,21.15
2022-09-26T22:47:14.893Z,21.80
2022-09-26T22:49:42.353Z,20.02
2022-09-26T22:52:09.591Z,25.05
2022-09-26T22:54:36.783Z,22.75
2022-09-26T22:57:03.969Z,24.00
2022-09-26T22:59:31.166Z,28.60
2022-09-26T23:01:58.350Z,38.53
2022-09-26T23:04:45.500Z,51.97
2022-09-26T23:07:12.674Z,41.60
2022-09-26T23:09:39.913Z,35.53
2022-09-26T23:12:07.698Z,30.30
2022-09-26T23:14:35.238Z,29.70
2022-09-26T23:17:02.631Z,30.95
2022-09-26T23:19:29.962Z,32.47
2022-09-26T23:21:58.199Z,31.73
2022-09-26T23:24:25.415Z,27.52
2022-09-26T23:26:52.682Z,29.90
2022-09-26T23:29:19.904Z,28.75
2022-09-26T23:31:47.099Z,30.30
2022-09-26T23:34:14.329Z,28.73
2022-09-26T23:36:41.493Z,28.48
2022-09-26T23:39:08.766Z,35.72
2022-09-26T23:41:36.036Z,34.47
2022-09-26T23:44:03.220Z,33.40
2022-09-26T23:46:30.479Z,36.92
2022-09-26T23:48:57.765Z,37.42
2022-09-26T23:51:24.924Z,37.13
2022-09-26T23:53:52.081Z,37.05
2022-09-26T23:56:19.262Z,40.97
2022-09-26T23:58:47.898Z,44.80
